sensor_id;sensor_type;location;lat;lon;timestamp;temperature;humidity
21216;DHT22;10765;50.954;5.322;2023-04-06T00:00:14;3.50;1.00
21216;DHT22;10765;50.954;5.322;2023-04-06T00:02:41;3.40;1.00
21216;DHT22;10765;50.954;5.322;2023-04-06T00:05:08;3.40;1.00
21216;DHT22;10765;50.954;5.322;2023-04-06T00:07:35;3.40;1.00
21216;DHT22;10765;50.954;5.322;2023-04-06T00:10:05;3.40;1.00
21216;DHT22;10765;50.954;5.322;2023-04-06T00:12:32;3.30;1.00
21216;DHT22;10765;50.954;5.322;2023-04-06T00:14:59;3.30;1.00
21216;DHT22;10765;50.954;5.322;2023-04-06T00:17:27;3.30;1.00
21216;DHT22;10765;50.954;5.322;2023-04-06T00:19:54;3.30;1.00
21216;DHT22;10765;50.954;5.322;2023-04-06T00:22:21;3.20;1.00
21216;DHT22;10765;50.954;5.322;2023-04-06T00:24:47;3.20;1.00
21216;DHT22;10765;50.954;5.322;2023-04-06T00:27:16;3.20;1.00
21216;DHT22;10765;50.954;5.322;2023-04-06T00:29:43;3.20;1.00
21216;DHT22;10765;50.954;5.322;2023-04-06T00:32:11;3.20;1.00
21216;DHT22;10765;50.954;5.322;2023-04-06T00:34:40;3.20;1.00
21216;DHT22;10765;50.954;5.322;2023-04-06T00:37:07;3.20;1.00
21216;DHT22;10765;50.954;5.322;2023-04-06T00:39:34;3.20;1.00
21216;DHT22;10765;50.954;5.322;2023-04-06T00:42:10;3.20;1.00
21216;DHT22;10765;50.954;5.322;2023-04-06T00:44:39;3.20;1.00
21216;DHT22;10765;50.954;5.322;2023-04-06T00:47:07;3.10;1.00
21216;DHT22;10765;50.954;5.322;2023-04-06T00:49:34;3.10;1.00
21216;DHT22;10765;50.954;5.322;2023-04-06T00:52:01;3.10;1.00
21216;DHT22;10765;50.954;5.322;2023-04-06T00:54:29;3.10;1.00
21216;DHT22;10765;50.954;5.322;2023-04-06T00:56:56;3.10;1.00
21216;DHT22;10765;50.954;5.322;2023-04-06T00:59:23;3.00;1.00
21216;DHT22;10765;50.954;5.322;2023-04-06T01:01:51;3.00;1.00
21216;DHT22;10765;50.954;5.322;2023-04-06T01:04:18;2.90;1.00
21216;DHT22;10765;50.954;5.322;2023-04-06T01:06:48;2.90;1.00
21216;DHT22;10765;50.954;5.322;2023-04-06T01:09:15;2.90;1.00
21216;DHT22;10765;50.954;5.322;2023-04-06T01:11:42;2.80;1.00
21216;DHT22;10765;50.954;5.322;2023-04-06T01:14:09;2.70;1.00
21216;DHT22;10765;50.954;5.322;2023-04-06T01:16:36;2.70;1.00
21216;DHT22;10765;50.954;5.322;2023-04-06T01:19:08;2.60;1.00
21216;DHT22;10765;50.954;5.322;2023-04-06T01:21:36;2.60;1.00
21216;DHT22;10765;50.954;5.322;2023-04-06T01:24:05;2.50;1.00
21216;DHT22;10765;50.954;5.322;2023-04-06T01:26:33;2.50;1.00
21216;DHT22;10765;50.954;5.322;2023-04-06T01:29:01;2.40;1.00
21216;DHT22;10765;50.954;5.322;2023-04-06T01:31:28;2.40;1.00
21216;DHT22;10765;50.954;5.322;2023-04-06T01:33:56;2.40;1.00
21216;DHT22;10765;50.954;5.322;2023-04-06T01:36:23;2.40;1.00
21216;DHT22;10765;50.954;5.322;2023-04-06T01:38:50;2.40;1.00
21216;DHT22;10765;50.954;5.322;2023-04-06T01:41:19;2.30;1.00
21216;DHT22;10765;50.954;5.322;2023-04-06T01:43:47;2.40;1.00
21216;DHT22;10765;50.954;5.322;2023-04-06T01:46:14;2.30;1.00
21216;DHT22;10765;50.954;5.322;2023-04-06T01:48:43;2.30;1.00
21216;DHT22;10765;50.954;5.322;2023-04-06T01:51:10;2.30;1.00
21216;DHT22;10765;50.954;5.322;2023-04-06T01:53:37;2.30;1.00
21216;DHT22;10765;50.954;5.322;2023-04-06T01:56:05;2.40;1.00
21216;DHT22;10765;50.954;5.322;2023-04-06T01:58:34;2.30;1.00
21216;DHT22;10765;50.954;5.322;2023-04-06T02:01:00;2.30;1.00
21216;DHT22;10765;50.954;5.322;2023-04-06T02:03:27;2.30;1.00
21216;DHT22;10765;50.954;5.322;2023-04-06T02:05:54;2.30;34.40
21216;DHT22;10765;50.954;5.322;2023-04-06T02:08:21;2.40;80.80
21216;DHT22;10765;50.954;5.322;2023-04-06T02:10:48;2.50;67.20
21216;DHT22;10765;50.954;5.322;2023-04-06T02:13:15;2.60;74.30
21216;DHT22;10765;50.954;5.322;2023-04-06T02:15:43;2.60;70.10
21216;DHT22;10765;50.954;5.322;2023-04-06T02:18:10;2.70;90.60
21216;DHT22;10765;50.954;5.322;2023-04-06T02:20:37;2.70;64.80
21216;DHT22;10765;50.954;5.322;2023-04-06T02:23:04;2.80;69.70
21216;DHT22;10765;50.954;5.322;2023-04-06T02:25:31;2.80;53.40
21216;DHT22;10765;50.954;5.322;2023-04-06T02:27:58;2.90;35.50
21216;DHT22;10765;50.954;5.322;2023-04-06T02:30:25;2.90;28.90
21216;DHT22;10765;50.954;5.322;2023-04-06T02:32:54;2.90;16.00
21216;DHT22;10765;50.954;5.322;2023-04-06T02:35:21;3.00;12.10
21216;DHT22;10765;50.954;5.322;2023-04-06T02:37:48;3.10;4.10
21216;DHT22;10765;50.954;5.322;2023-04-06T02:40:15;3.20;1.00
21216;DHT22;10765;50.954;5.322;2023-04-06T02:42:42;3.20;1.00
21216;DHT22;10765;50.954;5.322;2023-04-06T02:45:09;3.30;1.00
21216;DHT22;10765;50.954;5.322;2023-04-06T02:47:36;3.40;1.00
21216;DHT22;10765;50.954;5.322;2023-04-06T02:50:05;3.50;1.00
21216;DHT22;10765;50.954;5.322;2023-04-06T02:52:32;3.60;1.00
21216;DHT22;10765;50.954;5.322;2023-04-06T02:54:59;3.70;1.00
21216;DHT22;10765;50.954;5.322;2023-04-06T02:57:26;3.70;1.00
21216;DHT22;10765;50.954;5.322;2023-04-06T02:59:53;3.80;1.00
21216;DHT22;10765;50.954;5.322;2023-04-06T03:02:20;3.80;1.00
21216;DHT22;10765;50.954;5.322;2023-04-06T03:04:47;3.90;1.00
21216;DHT22;10765;50.954;5.322;2023-04-06T03:07:15;3.90;1.00
21216;DHT22;10765;50.954;5.322;2023-04-06T03:09:42;4.00;1.00
21216;DHT22;10765;50.954;5.322;2023-04-06T03:12:09;4.00;1.00
21216;DHT22;10765;50.954;5.322;2023-04-06T03:14:36;4.00;1.00
21216;DHT22;10765;50.954;5.322;2023-04-06T03:17:03;3.90;1.00
21216;DHT22;10765;50.954;5.322;2023-04-06T03:19:30;3.90;1.00
21216;DHT22;10765;50.954;5.322;2023-04-06T03:21:57;3.80;1.00
21216;DHT22;10765;50.954;5.322;2023-04-06T03:24:25;3.80;1.00
21216;DHT22;10765;50.954;5.322;2023-04-06T03:26:52;3.80;1.00
21216;DHT22;10765;50.954;5.322;2023-04-06T03:29:19;3.70;1.00
21216;DHT22;10765;50.954;5.322;2023-04-06T03:31:46;3.70;1.00
21216;DHT22;10765;50.954;5.322;2023-04-06T03:34:13;3.80;1.00
21216;DHT22;10765;50.954;5.322;2023-04-06T03:36:40;3.80;1.00
21216;DHT22;10765;50.954;5.322;2023-04-06T03:39:07;3.90;1.00
21216;DHT22;10765;50.954;5.322;2023-04-06T03:41:35;3.90;1.00
21216;DHT22;10765;50.954;5.322;2023-04-06T03:44:02;3.90;1.00
21216;DHT22;10765;50.954;5.322;2023-04-06T03:46:29;3.90;1.00
21216;DHT22;10765;50.954;5.322;2023-04-06T03:48:56;3.90;1.00
21216;DHT22;10765;50.954;5.322;2023-04-06T03:51:23;4.00;1.00
21216;DHT22;10765;50.954;5.322;2023-04-06T03:53:50;4.00;1.00
21216;DHT22;10765;50.954;5.322;2023-04-06T03:56:17;3.90;1.00
21216;DHT22;10765;50.954;5.322;2023-04-06T03:58:46;4.00;1.00
21216;DHT22;10765;50.954;5.322;2023-04-06T04:01:16;4.00;1.00
21216;DHT22;10765;50.954;5.322;2023-04-06T04:03:43;4.00;1.00
21216;DHT22;10765;50.954;5.322;2023-04-06T04:06:10;4.00;1.00
21216;DHT22;10765;50.954;5.322;2023-04-06T04:08:37;4.00;1.00
21216;DHT22;10765;50.954;5.322;2023-04-06T04:11:04;4.10;1.00
21216;DHT22;10765;50.954;5.322;2023-04-06T04:13:31;4.10;1.00
21216;DHT22;10765;50.954;5.322;2023-04-06T04:15:59;4.10;1.00
21216;DHT22;10765;50.954;5.322;2023-04-06T04:18:26;4.10;1.00
21216;DHT22;10765;50.954;5.322;2023-04-06T04:20:53;4.10;1.00
21216;DHT22;10765;50.954;5.322;2023-04-06T04:23:20;4.20;1.00
21216;DHT22;10765;50.954;5.322;2023-04-06T04:25:47;4.20;1.00
21216;DHT22;10765;50.954;5.322;2023-04-06T04:28:14;4.20;1.00
21216;DHT22;10765;50.954;5.322;2023-04-06T04:30:41;4.30;1.00
21216;DHT22;10765;50.954;5.322;2023-04-06T04:33:09;4.30;1.00
21216;DHT22;10765;50.954;5.322;2023-04-06T04:35:36;4.40;1.00
21216;DHT22;10765;50.954;5.322;2023-04-06T04:38:03;4.40;1.00
21216;DHT22;10765;50.954;5.322;2023-04-06T04:40:30;4.40;1.00
21216;DHT22;10765;50.954;5.322;2023-04-06T04:42:57;4.50;1.00
21216;DHT22;10765;50.954;5.322;2023-04-06T04:45:24;4.50;1.00
21216;DHT22;10765;50.954;5.322;2023-04-06T04:47:51;4.50;1.00
21216;DHT22;10765;50.954;5.322;2023-04-06T04:50:19;4.60;1.00
21216;DHT22;10765;50.954;5.322;2023-04-06T04:52:46;4.70;1.00
21216;DHT22;10765;50.954;5.322;2023-04-06T04:55:13;4.70;1.00
21216;DHT22;10765;50.954;5.322;2023-04-06T04:57:40;4.70;1.00
21216;DHT22;10765;50.954;5.322;2023-04-06T05:00:08;4.70;1.00
21216;DHT22;10765;50.954;5.322;2023-04-06T05:02:35;4.80;1.00
21216;DHT22;10765;50.954;5.322;2023-04-06T05:05:02;4.80;1.00
21216;DHT22;10765;50.954;5.322;2023-04-06T05:07:31;4.80;1.00
21216;DHT22;10765;50.954;5.322;2023-04-06T05:09:57;4.80;1.00
21216;DHT22;10765;50.954;5.322;2023-04-06T05:12:25;4.80;1.00
21216;DHT22;10765;50.954;5.322;2023-04-06T05:14:53;4.80;1.00
21216;DHT22;10765;50.954;5.322;2023-04-06T05:17:21;4.80;1.00
21216;DHT22;10765;50.954;5.322;2023-04-06T05:19:47;4.80;1.00
21216;DHT22;10765;50.954;5.322;2023-04-06T05:22:15;4.90;1.00
21216;DHT22;10765;50.954;5.322;2023-04-06T05:24:44;4.90;1.00
21216;DHT22;10765;50.954;5.322;2023-04-06T05:27:11;4.90;1.00
21216;DHT22;10765;50.954;5.322;2023-04-06T05:29:38;5.00;1.00
21216;DHT22;10765;50.954;5.322;2023-04-06T05:32:06;5.00;1.00
21216;DHT22;10765;50.954;5.322;2023-04-06T05:34:33;5.20;1.00
21216;DHT22;10765;50.954;5.322;2023-04-06T05:37:00;5.20;1.00
21216;DHT22;10765;50.954;5.322;2023-04-06T05:39:27;5.30;1.00
21216;DHT22;10765;50.954;5.322;2023-04-06T05:41:55;5.40;1.00
21216;DHT22;10765;50.954;5.322;2023-04-06T05:44:22;5.50;1.00
21216;DHT22;10765;50.954;5.322;2023-04-06T05:46:49;5.50;1.00
21216;DHT22;10765;50.954;5.322;2023-04-06T05:49:17;5.60;1.00
21216;DHT22;10765;50.954;5.322;2023-04-06T05:51:44;5.70;1.00
21216;DHT22;10765;50.954;5.322;2023-04-06T05:54:11;5.70;1.00
21216;DHT22;10765;50.954;5.322;2023-04-06T05:56:40;5.70;1.00
21216;DHT22;10765;50.954;5.322;2023-04-06T05:59:08;5.80;1.00
21216;DHT22;10765;50.954;5.322;2023-04-06T06:01:35;5.80;1.00
21216;DHT22;10765;50.954;5.322;2023-04-06T06:04:02;5.90;1.00
21216;DHT22;10765;50.954;5.322;2023-04-06T06:06:30;6.10;1.00
21216;DHT22;10765;50.954;5.322;2023-04-06T06:08:57;6.10;1.00
21216;DHT22;10765;50.954;5.322;2023-04-06T06:11:26;6.20;1.00
21216;DHT22;10765;50.954;5.322;2023-04-06T06:13:53;6.30;1.00
21216;DHT22;10765;50.954;5.322;2023-04-06T06:16:21;6.30;1.00
21216;DHT22;10765;50.954;5.322;2023-04-06T06:18:48;6.30;1.00
21216;DHT22;10765;50.954;5.322;2023-04-06T06:21:15;6.10;1.00
21216;DHT22;10765;50.954;5.322;2023-04-06T06:23:43;6.00;1.00
21216;DHT22;10765;50.954;5.322;2023-04-06T06:26:10;6.10;1.00
21216;DHT22;10765;50.954;5.322;2023-04-06T06:28:37;6.10;1.00
21216;DHT22;10765;50.954;5.322;2023-04-06T06:31:04;6.20;1.00
21216;DHT22;10765;50.954;5.322;2023-04-06T06:33:32;6.30;1.00
21216;DHT22;10765;50.954;5.322;2023-04-06T06:35:59;6.40;1.00
21216;DHT22;10765;50.954;5.322;2023-04-06T06:38:26;6.60;1.00
21216;DHT22;10765;50.954;5.322;2023-04-06T06:40:53;6.70;1.00
21216;DHT22;10765;50.954;5.322;2023-04-06T06:43:20;6.80;1.00
21216;DHT22;10765;50.954;5.322;2023-04-06T06:45:47;6.90;1.00
21216;DHT22;10765;50.954;5.322;2023-04-06T06:48:13;7.10;1.00
21216;DHT22;10765;50.954;5.322;2023-04-06T06:50:42;7.30;1.00
21216;DHT22;10765;50.954;5.322;2023-04-06T06:53:09;7.50;1.00
21216;DHT22;10765;50.954;5.322;2023-04-06T06:55:37;7.60;1.00
21216;DHT22;10765;50.954;5.322;2023-04-06T06:58:04;7.70;1.00
21216;DHT22;10765;50.954;5.322;2023-04-06T07:00:31;7.80;99.90
21216;DHT22;10765;50.954;5.322;2023-04-06T07:02:58;8.00;99.90
21216;DHT22;10765;50.954;5.322;2023-04-06T07:05:25;8.20;99.90
21216;DHT22;10765;50.954;5.322;2023-04-06T07:07:54;8.10;99.90
21216;DHT22;10765;50.954;5.322;2023-04-06T07:10:21;7.90;99.90
21216;DHT22;10765;50.954;5.322;2023-04-06T07:12:48;7.70;99.90
21216;DHT22;10765;50.954;5.322;2023-04-06T07:15:16;7.90;99.90
21216;DHT22;10765;50.954;5.322;2023-04-06T07:17:43;8.40;99.90
21216;DHT22;10765;50.954;5.322;2023-04-06T07:20:11;8.70;99.90
21216;DHT22;10765;50.954;5.322;2023-04-06T07:22:38;9.00;99.90
21216;DHT22;10765;50.954;5.322;2023-04-06T07:25:07;9.10;99.90
21216;DHT22;10765;50.954;5.322;2023-04-06T07:27:34;9.10;99.90
21216;DHT22;10765;50.954;5.322;2023-04-06T07:30:02;9.40;99.90
21216;DHT22;10765;50.954;5.322;2023-04-06T07:32:29;9.50;99.90
21216;DHT22;10765;50.954;5.322;2023-04-06T07:34:56;9.80;99.90
21216;DHT22;10765;50.954;5.322;2023-04-06T07:37:23;10.00;99.90
21216;DHT22;10765;50.954;5.322;2023-04-06T07:39:50;10.20;99.90
21216;DHT22;10765;50.954;5.322;2023-04-06T07:42:19;9.90;99.90
21216;DHT22;10765;50.954;5.322;2023-04-06T07:44:46;9.70;99.90
21216;DHT22;10765;50.954;5.322;2023-04-06T07:47:14;9.60;99.90
21216;DHT22;10765;50.954;5.322;2023-04-06T07:49:41;9.70;99.90
21216;DHT22;10765;50.954;5.322;2023-04-06T07:52:08;9.80;99.90
21216;DHT22;10765;50.954;5.322;2023-04-06T07:54:35;9.90;99.90
21216;DHT22;10765;50.954;5.322;2023-04-06T07:57:02;9.80;99.90
21216;DHT22;10765;50.954;5.322;2023-04-06T07:59:30;9.70;99.90
21216;DHT22;10765;50.954;5.322;2023-04-06T08:01:57;9.70;99.90
21216;DHT22;10765;50.954;5.322;2023-04-06T08:04:24;9.70;99.90
21216;DHT22;10765;50.954;5.322;2023-04-06T08:06:51;9.70;99.90
21216;DHT22;10765;50.954;5.322;2023-04-06T08:09:18;9.80;99.90
21216;DHT22;10765;50.954;5.322;2023-04-06T08:11:45;9.90;99.90
21216;DHT22;10765;50.954;5.322;2023-04-06T08:14:14;10.00;99.90
21216;DHT22;10765;50.954;5.322;2023-04-06T08:16:43;10.00;99.90
21216;DHT22;10765;50.954;5.322;2023-04-06T08:19:09;10.10;99.90
21216;DHT22;10765;50.954;5.322;2023-04-06T08:21:36;10.20;99.90
21216;DHT22;10765;50.954;5.322;2023-04-06T08:24:05;10.40;99.90
21216;DHT22;10765;50.954;5.322;2023-04-06T08:26:32;10.40;99.90
21216;DHT22;10765;50.954;5.322;2023-04-06T08:28:59;10.50;99.90
21216;DHT22;10765;50.954;5.322;2023-04-06T08:31:26;10.70;99.90
21216;DHT22;10765;50.954;5.322;2023-04-06T08:33:54;10.90;99.90
21216;DHT22;10765;50.954;5.322;2023-04-06T08:36:21;11.10;99.90
21216;DHT22;10765;50.954;5.322;2023-04-06T08:38:49;11.20;99.90
21216;DHT22;10765;50.954;5.322;2023-04-06T08:41:17;11.40;99.90
21216;DHT22;10765;50.954;5.322;2023-04-06T08:43:47;11.70;99.90
21216;DHT22;10765;50.954;5.322;2023-04-06T08:46:14;11.60;99.90
21216;DHT22;10765;50.954;5.322;2023-04-06T08:48:42;11.60;99.90
21216;DHT22;10765;50.954;5.322;2023-04-06T08:51:12;11.40;99.90
21216;DHT22;10765;50.954;5.322;2023-04-06T08:53:39;11.40;99.90
21216;DHT22;10765;50.954;5.322;2023-04-06T08:56:06;11.00;99.90
21216;DHT22;10765;50.954;5.322;2023-04-06T08:58:35;11.00;99.90
21216;DHT22;10765;50.954;5.322;2023-04-06T09:01:06;11.20;99.90
21216;DHT22;10765;50.954;5.322;2023-04-06T09:03:37;11.60;99.90
21216;DHT22;10765;50.954;5.322;2023-04-06T09:06:05;11.40;99.90
21216;DHT22;10765;50.954;5.322;2023-04-06T09:08:34;11.40;99.90
21216;DHT22;10765;50.954;5.322;2023-04-06T09:11:01;11.50;99.90
21216;DHT22;10765;50.954;5.322;2023-04-06T09:13:28;11.70;99.90
21216;DHT22;10765;50.954;5.322;2023-04-06T09:15:59;11.50;99.90
21216;DHT22;10765;50.954;5.322;2023-04-06T09:18:30;11.20;99.90
21216;DHT22;10765;50.954;5.322;2023-04-06T09:21:00;11.20;99.90
21216;DHT22;10765;50.954;5.322;2023-04-06T09:23:27;11.30;99.90
21216;DHT22;10765;50.954;5.322;2023-04-06T09:26:06;11.20;99.90
21216;DHT22;10765;50.954;5.322;2023-04-06T09:28:44;11.30;99.90
21216;DHT22;10765;50.954;5.322;2023-04-06T09:31:13;11.70;99.90
21216;DHT22;10765;50.954;5.322;2023-04-06T09:33:41;11.80;99.90
21216;DHT22;10765;50.954;5.322;2023-04-06T09:36:09;11.40;99.90
21216;DHT22;10765;50.954;5.322;2023-04-06T09:38:51;11.50;99.90
21216;DHT22;10765;50.954;5.322;2023-04-06T09:41:25;11.40;99.90
21216;DHT22;10765;50.954;5.322;2023-04-06T09:44:01;11.10;99.90
21216;DHT22;10765;50.954;5.322;2023-04-06T09:46:31;10.70;99.90
21216;DHT22;10765;50.954;5.322;2023-04-06T09:48:59;10.40;99.90
21216;DHT22;10765;50.954;5.322;2023-04-06T09:51:26;10.20;99.90
21216;DHT22;10765;50.954;5.322;2023-04-06T09:53:56;10.10;99.90
21216;DHT22;10765;50.954;5.322;2023-04-06T09:56:29;9.70;1.00
21216;DHT22;10765;50.954;5.322;2023-04-06T09:59:02;9.60;1.00
21216;DHT22;10765;50.954;5.322;2023-04-06T10:01:33;9.60;1.00
21216;DHT22;10765;50.954;5.322;2023-04-06T10:04:10;9.40;1.00
21216;DHT22;10765;50.954;5.322;2023-04-06T10:06:40;9.50;1.00
21216;DHT22;10765;50.954;5.322;2023-04-06T10:09:07;9.40;1.00
21216;DHT22;10765;50.954;5.322;2023-04-06T10:11:36;9.40;1.00
21216;DHT22;10765;50.954;5.322;2023-04-06T10:14:03;9.40;1.00
21216;DHT22;10765;50.954;5.322;2023-04-06T10:16:31;9.60;1.00
21216;DHT22;10765;50.954;5.322;2023-04-06T10:19:02;9.60;1.00
21216;DHT22;10765;50.954;5.322;2023-04-06T10:21:32;9.40;1.00
21216;DHT22;10765;50.954;5.322;2023-04-06T10:24:01;9.60;1.00
21216;DHT22;10765;50.954;5.322;2023-04-06T10:26:28;9.70;1.00
21216;DHT22;10765;50.954;5.322;2023-04-06T10:29:03;9.40;1.00
21216;DHT22;10765;50.954;5.322;2023-04-06T10:31:30;8.90;1.00
21216;DHT22;10765;50.954;5.322;2023-04-06T10:33:58;8.90;56.70
21216;DHT22;10765;50.954;5.322;2023-04-06T10:36:27;8.90;99.90
21216;DHT22;10765;50.954;5.322;2023-04-06T10:38:55;9.00;99.90
21216;DHT22;10765;50.954;5.322;2023-04-06T10:41:23;9.30;99.90
21216;DHT22;10765;50.954;5.322;2023-04-06T10:43:56;9.50;99.90
21216;DHT22;10765;50.954;5.322;2023-04-06T10:46:27;9.30;63.70
21216;DHT22;10765;50.954;5.322;2023-04-06T10:48:54;9.20;99.90
21216;DHT22;10765;50.954;5.322;2023-04-06T10:51:25;9.00;99.90
21216;DHT22;10765;50.954;5.322;2023-04-06T10:53:54;8.90;99.90
21216;DHT22;10765;50.954;5.322;2023-04-06T10:56:23;8.80;1.00
21216;DHT22;10765;50.954;5.322;2023-04-06T10:58:52;8.80;1.00
21216;DHT22;10765;50.954;5.322;2023-04-06T11:01:22;8.70;99.90
21216;DHT22;10765;50.954;5.322;2023-04-06T11:03:54;8.40;1.00
21216;DHT22;10765;50.954;5.322;2023-04-06T11:06:22;8.50;1.00
21216;DHT22;10765;50.954;5.322;2023-04-06T11:08:50;8.40;1.00
21216;DHT22;10765;50.954;5.322;2023-04-06T11:11:18;8.60;1.00
21216;DHT22;10765;50.954;5.322;2023-04-06T11:13:48;8.70;19.30
21216;DHT22;10765;50.954;5.322;2023-04-06T11:16:16;8.60;1.00
21216;DHT22;10765;50.954;5.322;2023-04-06T11:18:55;8.40;1.00
21216;DHT22;10765;50.954;5.322;2023-04-06T11:21:34;8.50;19.40
21216;DHT22;10765;50.954;5.322;2023-04-06T11:24:09;8.50;19.70
21216;DHT22;10765;50.954;5.322;2023-04-06T11:26:41;8.50;99.90
21216;DHT22;10765;50.954;5.322;2023-04-06T11:29:09;8.50;1.00
21216;DHT22;10765;50.954;5.322;2023-04-06T11:31:40;8.50;1.00
21216;DHT22;10765;50.954;5.322;2023-04-06T11:34:13;8.70;59.90
21216;DHT22;10765;50.954;5.322;2023-04-06T11:36:41;8.70;99.90
21216;DHT22;10765;50.954;5.322;2023-04-06T11:39:09;8.70;1.00
21216;DHT22;10765;50.954;5.322;2023-04-06T11:41:36;8.80;99.90
21216;DHT22;10765;50.954;5.322;2023-04-06T11:44:04;8.90;1.00
21216;DHT22;10765;50.954;5.322;2023-04-06T11:46:32;9.00;20.60
21216;DHT22;10765;50.954;5.322;2023-04-06T11:49:00;9.20;1.00
21216;DHT22;10765;50.954;5.322;2023-04-06T11:51:28;9.00;99.90
21216;DHT22;10765;50.954;5.322;2023-04-06T11:53:55;9.10;99.90
21216;DHT22;10765;50.954;5.322;2023-04-06T11:56:26;9.00;1.00
21216;DHT22;10765;50.954;5.322;2023-04-06T11:58:58;9.00;1.00
21216;DHT22;10765;50.954;5.322;2023-04-06T12:01:26;9.00;99.90
21216;DHT22;10765;50.954;5.322;2023-04-06T12:03:53;8.90;99.90
21216;DHT22;10765;50.954;5.322;2023-04-06T12:06:20;8.70;1.00
21216;DHT22;10765;50.954;5.322;2023-04-06T12:08:49;8.60;99.90
21216;DHT22;10765;50.954;5.322;2023-04-06T12:11:15;8.70;1.00
21216;DHT22;10765;50.954;5.322;2023-04-06T12:13:44;8.70;99.90
21216;DHT22;10765;50.954;5.322;2023-04-06T12:16:11;8.80;99.90
21216;DHT22;10765;50.954;5.322;2023-04-06T12:18:38;8.70;1.00
21216;DHT22;10765;50.954;5.322;2023-04-06T12:21:05;8.80;99.90
21216;DHT22;10765;50.954;5.322;2023-04-06T12:23:32;8.70;99.90
21216;DHT22;10765;50.954;5.322;2023-04-06T12:26:00;8.70;99.90
21216;DHT22;10765;50.954;5.322;2023-04-06T12:28:27;8.70;99.90
21216;DHT22;10765;50.954;5.322;2023-04-06T12:30:55;8.70;1.00
21216;DHT22;10765;50.954;5.322;2023-04-06T12:33:22;8.80;99.90
21216;DHT22;10765;50.954;5.322;2023-04-06T12:35:49;8.80;1.00
21216;DHT22;10765;50.954;5.322;2023-04-06T12:38:16;8.80;99.90
21216;DHT22;10765;50.954;5.322;2023-04-06T12:40:43;8.80;99.90
21216;DHT22;10765;50.954;5.322;2023-04-06T12:43:11;8.60;1.00
21216;DHT22;10765;50.954;5.322;2023-04-06T12:45:39;8.70;99.90
21216;DHT22;10765;50.954;5.322;2023-04-06T12:48:07;8.60;1.00
21216;DHT22;10765;50.954;5.322;2023-04-06T12:50:33;8.40;1.00
21216;DHT22;10765;50.954;5.322;2023-04-06T12:53:00;8.70;99.90
21216;DHT22;10765;50.954;5.322;2023-04-06T12:55:29;8.60;1.00
21216;DHT22;10765;50.954;5.322;2023-04-06T12:57:59;8.40;1.00
21216;DHT22;10765;50.954;5.322;2023-04-06T13:00:28;8.30;99.90
21216;DHT22;10765;50.954;5.322;2023-04-06T13:02:56;8.30;1.00
21216;DHT22;10765;50.954;5.322;2023-04-06T13:05:23;8.30;1.00
21216;DHT22;10765;50.954;5.322;2023-04-06T13:07:50;8.30;53.80
21216;DHT22;10765;50.954;5.322;2023-04-06T13:10:17;8.40;99.90
21216;DHT22;10765;50.954;5.322;2023-04-06T13:12:44;8.50;99.90
21216;DHT22;10765;50.954;5.322;2023-04-06T13:15:11;8.30;1.00
21216;DHT22;10765;50.954;5.322;2023-04-06T13:17:39;8.30;1.00
21216;DHT22;10765;50.954;5.322;2023-04-06T13:20:07;8.20;1.00
21216;DHT22;10765;50.954;5.322;2023-04-06T13:22:34;8.40;1.00
21216;DHT22;10765;50.954;5.322;2023-04-06T13:25:01;8.30;1.00
21216;DHT22;10765;50.954;5.322;2023-04-06T13:27:28;8.40;1.00
21216;DHT22;10765;50.954;5.322;2023-04-06T13:29:59;8.50;99.90
21216;DHT22;10765;50.954;5.322;2023-04-06T13:32:26;8.60;1.00
21216;DHT22;10765;50.954;5.322;2023-04-06T13:34:56;8.50;1.00
21216;DHT22;10765;50.954;5.322;2023-04-06T13:37:23;8.60;1.00
21216;DHT22;10765;50.954;5.322;2023-04-06T13:39:50;8.60;99.90
21216;DHT22;10765;50.954;5.322;2023-04-06T13:42:17;8.50;1.00
21216;DHT22;10765;50.954;5.322;2023-04-06T13:44:45;8.60;1.00
21216;DHT22;10765;50.954;5.322;2023-04-06T13:47:13;8.60;99.90
21216;DHT22;10765;50.954;5.322;2023-04-06T13:49:41;8.60;1.00
21216;DHT22;10765;50.954;5.322;2023-04-06T13:52:09;8.60;1.00
21216;DHT22;10765;50.954;5.322;2023-04-06T13:54:36;8.60;1.00
21216;DHT22;10765;50.954;5.322;2023-04-06T13:57:03;8.60;1.00
21216;DHT22;10765;50.954;5.322;2023-04-06T13:59:34;8.70;99.90
21216;DHT22;10765;50.954;5.322;2023-04-06T14:02:01;8.90;1.00
21216;DHT22;10765;50.954;5.322;2023-04-06T14:04:28;8.80;1.00
21216;DHT22;10765;50.954;5.322;2023-04-06T14:06:55;8.60;99.90
21216;DHT22;10765;50.954;5.322;2023-04-06T14:09:24;8.40;99.90
21216;DHT22;10765;50.954;5.322;2023-04-06T14:11:51;8.40;1.00
21216;DHT22;10765;50.954;5.322;2023-04-06T14:14:19;8.50;1.00
21216;DHT22;10765;50.954;5.322;2023-04-06T14:16:46;8.40;99.90
21216;DHT22;10765;50.954;5.322;2023-04-06T14:19:16;8.70;1.00
21216;DHT22;10765;50.954;5.322;2023-04-06T14:21:44;8.80;1.00
21216;DHT22;10765;50.954;5.322;2023-04-06T14:24:11;8.90;99.90
21216;DHT22;10765;50.954;5.322;2023-04-06T14:26:40;8.80;1.00
21216;DHT22;10765;50.954;5.322;2023-04-06T14:29:08;8.80;1.00
21216;DHT22;10765;50.954;5.322;2023-04-06T14:31:35;8.70;48.20
21216;DHT22;10765;50.954;5.322;2023-04-06T14:34:03;8.80;99.90
21216;DHT22;10765;50.954;5.322;2023-04-06T14:36:31;8.70;1.00
21216;DHT22;10765;50.954;5.322;2023-04-06T14:39:02;8.60;99.90
21216;DHT22;10765;50.954;5.322;2023-04-06T14:41:30;8.70;1.00
21216;DHT22;10765;50.954;5.322;2023-04-06T14:43:59;8.80;99.90
21216;DHT22;10765;50.954;5.322;2023-04-06T14:46:27;8.90;1.00
21216;DHT22;10765;50.954;5.322;2023-04-06T14:48:54;8.80;1.00
21216;DHT22;10765;50.954;5.322;2023-04-06T14:51:24;8.70;1.00
21216;DHT22;10765;50.954;5.322;2023-04-06T14:53:51;8.70;17.70
21216;DHT22;10765;50.954;5.322;2023-04-06T14:56:19;8.70;1.00
21216;DHT22;10765;50.954;5.322;2023-04-06T14:58:47;8.60;1.00
21216;DHT22;10765;50.954;5.322;2023-04-06T15:01:16;8.60;99.90
21216;DHT22;10765;50.954;5.322;2023-04-06T15:03:43;8.50;73.20
21216;DHT22;10765;50.954;5.322;2023-04-06T15:06:12;8.50;99.90
21216;DHT22;10765;50.954;5.322;2023-04-06T15:08:40;8.50;99.90
21216;DHT22;10765;50.954;5.322;2023-04-06T15:11:07;8.50;99.90
21216;DHT22;10765;50.954;5.322;2023-04-06T15:13:34;8.60;99.90
21216;DHT22;10765;50.954;5.322;2023-04-06T15:16:01;8.60;99.90
21216;DHT22;10765;50.954;5.322;2023-04-06T15:18:29;8.50;99.90
21216;DHT22;10765;50.954;5.322;2023-04-06T15:20:56;8.40;99.90
21216;DHT22;10765;50.954;5.322;2023-04-06T15:23:23;8.40;99.90
21216;DHT22;10765;50.954;5.322;2023-04-06T15:25:51;8.50;99.90
21216;DHT22;10765;50.954;5.322;2023-04-06T15:28:18;8.50;99.90
21216;DHT22;10765;50.954;5.322;2023-04-06T15:30:45;8.40;99.90
21216;DHT22;10765;50.954;5.322;2023-04-06T15:33:12;8.40;99.90
21216;DHT22;10765;50.954;5.322;2023-04-06T15:35:40;8.40;99.90
21216;DHT22;10765;50.954;5.322;2023-04-06T15:38:08;8.40;99.90
21216;DHT22;10765;50.954;5.322;2023-04-06T15:40:42;8.40;99.90
21216;DHT22;10765;50.954;5.322;2023-04-06T15:43:12;8.30;99.90
21216;DHT22;10765;50.954;5.322;2023-04-06T15:45:39;8.40;99.90
21216;DHT22;10765;50.954;5.322;2023-04-06T15:48:07;8.40;99.90
21216;DHT22;10765;50.954;5.322;2023-04-06T15:50:34;8.40;99.90
21216;DHT22;10765;50.954;5.322;2023-04-06T15:53:03;8.30;99.90
21216;DHT22;10765;50.954;5.322;2023-04-06T15:55:31;8.10;99.90